createdAt,value
2023-03-11T00:00:31.106Z,100623.69
2023-03-11T00:02:55.891Z,100623.13
2023-03-11T00:05:28.702Z,100629.16
2023-03-11T00:07:51.036Z,100630.25
2023-03-11T00:10:18.319Z,100630.31
2023-03-11T00:12:39.858Z,100626.00
2023-03-11T00:15:01.472Z,100628.19
2023-03-11T00:17:23.197Z,100622.78
2023-03-11T00:19:44.845Z,100635.56
2023-03-11T00:22:06.448Z,100636.41
2023-03-11T00:24:28.071Z,100638.59
2023-03-11T00:26:49.713Z,100645.94
2023-03-11T00:29:11.401Z,100641.34
2023-03-11T00:31:33.041Z,100648.13
2023-03-11T00:33:57.344Z,100660.91
2023-03-11T00:36:31.881Z,100659.88
2023-03-11T00:38:53.632Z,100660.97
2023-03-11T00:41:15.364Z,100664.25
2023-03-11T00:43:37.029Z,100663.97
2023-03-11T00:45:59.049Z,100663.44
2023-03-11T00:48:20.906Z,100667.53
2023-03-11T00:50:43.254Z,100671.59
2023-03-11T00:53:06.719Z,100666.44
2023-03-11T00:55:32.950Z,100669.44
2023-03-11T00:58:03.839Z,100676.75
2023-03-11T01:00:34.092Z,100673.50
2023-03-11T01:02:58.181Z,100672.69
2023-03-11T01:05:23.282Z,100680.31
2023-03-11T01:07:44.965Z,100678.69
2023-03-11T01:10:09.706Z,100677.06
2023-03-11T01:12:31.406Z,100683.31
2023-03-11T01:14:53.249Z,100685.22
2023-03-11T01:17:15.010Z,100691.44
2023-03-11T01:19:37.132Z,100692.28
2023-03-11T01:21:58.822Z,100704.50
2023-03-11T01:24:20.506Z,100708.03
2023-03-11T01:26:42.225Z,100705.03
2023-03-11T01:29:04.195Z,100710.47
2023-03-11T01:31:25.845Z,100708.84
2023-03-11T01:33:47.546Z,100716.19
2023-03-11T01:36:09.438Z,100720.81
2023-03-11T01:38:31.074Z,100708.59
2023-03-11T01:40:53.725Z,100713.75
2023-03-11T01:43:43.836Z,100723.78
2023-03-11T01:46:36.605Z,100717.25
2023-03-11T01:49:03.512Z,100725.69
2023-03-11T01:51:44.591Z,100718.09
2023-03-11T01:54:14.911Z,100726.75
2023-03-11T01:56:38.814Z,100720.25
2023-03-11T01:59:01.186Z,100716.72
2023-03-11T02:01:24.978Z,100719.44
2023-03-11T02:03:47.840Z,100726.47
2023-03-11T02:06:15.912Z,100736.53
2023-03-11T02:08:37.784Z,100728.13
2023-03-11T02:11:05.041Z,100729.72
2023-03-11T02:13:26.796Z,100721.84
2023-03-11T02:15:49.983Z,100724.31
2023-03-11T02:18:15.222Z,100722.94
2023-03-11T02:20:50.888Z,100728.91
2023-03-11T02:23:14.277Z,100730.81
2023-03-11T02:25:48.368Z,100733.81
2023-03-11T02:28:15.400Z,100732.69
2023-03-11T02:30:43.430Z,100739.22
2023-03-11T02:33:05.467Z,100742.75
2023-03-11T02:35:28.028Z,100736.25
2023-03-11T02:37:53.746Z,100742.50
2023-03-11T02:40:22.182Z,100741.94
2023-03-11T02:42:44.560Z,100741.66
2023-03-11T02:45:13.975Z,100744.38
2023-03-11T02:47:39.387Z,100743.28
2023-03-11T02:50:07.520Z,100737.84
2023-03-11T02:52:29.428Z,100743.28
2023-03-11T02:54:51.027Z,100745.19
2023-03-11T02:57:12.609Z,100744.38
2023-03-11T02:59:35.800Z,100740.84
2023-03-11T03:01:57.645Z,100740.00
2023-03-11T03:04:19.576Z,100735.41
2023-03-11T03:06:41.373Z,100735.41
2023-03-11T03:09:04.385Z,100734.88
2023-03-11T03:11:26.342Z,100741.09
2023-03-11T03:13:48.012Z,100735.69
2023-03-11T03:16:10.473Z,100739.50
2023-03-11T03:18:32.516Z,100742.22
2023-03-11T03:20:54.977Z,100748.44
2023-03-11T03:23:17.276Z,100744.09
2023-03-11T03:25:43.721Z,100756.84
2023-03-11T03:28:06.323Z,100753.59
2023-03-11T03:30:30.928Z,100767.47
2023-03-11T03:32:52.598Z,100770.19
2023-03-11T03:35:15.478Z,100773.97
2023-03-11T03:37:49.592Z,100785.63
2023-03-11T03:40:14.181Z,100797.03
2023-03-11T03:42:37.294Z,100795.97
2023-03-11T03:44:59.775Z,100799.75
2023-03-11T03:47:21.724Z,100790.81
2023-03-11T03:49:43.524Z,100802.47
2023-03-11T03:52:07.240Z,100799.50
2023-03-11T03:54:28.851Z,100806.84
2023-03-11T03:56:50.523Z,100809.25
2023-03-11T03:59:13.080Z,100797.59
2023-03-11T04:01:41.289Z,100801.09
2023-03-11T04:04:03.147Z,100803.31
2023-03-11T04:06:27.504Z,100806.28
2023-03-11T04:08:55.429Z,100808.19
2023-03-11T04:11:22.482Z,100803.84
2023-03-11T04:13:44.850Z,100811.72
2023-03-11T04:16:08.389Z,100816.34
2023-03-11T04:18:30.281Z,100817.69
2023-03-11T04:20:51.862Z,100819.88
2023-03-11T04:23:13.594Z,100823.66
2023-03-11T04:25:35.364Z,100825.00
2023-03-11T04:27:57.313Z,100825.56
2023-03-11T04:30:19.206Z,100827.47
2023-03-11T04:32:43.387Z,100827.19
2023-03-11T04:35:06.805Z,100844.56
2023-03-11T04:37:29.728Z,100841.56
2023-03-11T04:39:53.375Z,100832.38
2023-03-11T04:42:15.498Z,100830.47
2023-03-11T04:44:38.651Z,100833.97
2023-03-11T04:47:01.007Z,100829.91
2023-03-11T04:49:23.515Z,100832.34
2023-03-11T04:51:46.555Z,100833.69
2023-03-11T04:54:10.922Z,100829.34
2023-03-11T04:56:33.846Z,100829.06
2023-03-11T04:58:55.637Z,100827.44
2023-03-11T05:01:19.653Z,100842.38
2023-03-11T05:03:41.423Z,100843.44
2023-03-11T05:06:05.679Z,100847.78
2023-03-11T05:08:27.612Z,100845.06
2023-03-11T05:10:51.541Z,100841.56
2023-03-11T05:13:13.476Z,100842.06
2023-03-11T05:15:36.602Z,100848.59
2023-03-11T05:17:58.828Z,100845.06
2023-03-11T05:20:20.537Z,100855.13
2023-03-11T05:22:42.190Z,100855.63
2023-03-11T05:25:06.234Z,100854.81
2023-03-11T05:27:28.564Z,100865.66
2023-03-11T05:29:51.983Z,100870.53
2023-03-11T05:32:14.352Z,100875.41
2023-03-11T05:34:38.176Z,100880.03
2023-03-11T05:37:03.213Z,100864.56
2023-03-11T05:39:25.543Z,100862.94
2023-03-11T05:41:47.592Z,100874.34
2023-03-11T05:44:10.167Z,100861.03
2023-03-11T05:46:32.345Z,100864.56
2023-03-11T05:48:54.615Z,100868.09
2023-03-11T05:51:17.059Z,100869.97
2023-03-11T05:53:48.338Z,100887.34
2023-03-11T05:56:16.243Z,100893.31
2023-03-11T05:58:37.928Z,100883.81
2023-03-11T06:01:01.720Z,100891.94
2023-03-11T06:03:23.554Z,100895.72
2023-03-11T06:05:50.127Z,100896.53
2023-03-11T06:08:13.544Z,100906.56
2023-03-11T06:10:35.232Z,100905.75
2023-03-11T06:12:56.955Z,100909.84
2023-03-11T06:15:29.723Z,100918.78
2023-03-11T06:17:51.335Z,100916.34
2023-03-11T06:20:13.376Z,100919.31
2023-03-11T06:22:36.398Z,100919.31
2023-03-11T06:24:58.985Z,100922.03
2023-03-11T06:27:21.075Z,100919.06
2023-03-11T06:29:42.984Z,100917.41
2023-03-11T06:32:06.561Z,100919.56
2023-03-11T06:34:28.347Z,100929.34
2023-03-11T06:36:50.034Z,100942.38
2023-03-11T06:39:15.491Z,100933.97
2023-03-11T06:41:38.735Z,100942.69
2023-03-11T06:44:02.785Z,100940.78
2023-03-11T06:46:24.547Z,100945.09
2023-03-11T06:48:48.027Z,100946.75
2023-03-11T06:51:11.246Z,100951.97
2023-03-11T06:53:33.927Z,100952.06
2023-03-11T06:56:03.834Z,100953.19
2023-03-11T06:58:28.221Z,100964.03
2023-03-11T07:00:49.863Z,100968.81
2023-03-11T07:03:11.543Z,100972.28
2023-03-11T07:05:33.192Z,100976.09
2023-03-11T07:08:00.270Z,100972.06
2023-03-11T07:10:22.040Z,100981.41
2023-03-11T07:12:43.741Z,100985.41
2023-03-11T07:15:06.167Z,100984.47
2023-03-11T07:17:29.737Z,100991.13
2023-03-11T07:19:52.183Z,100994.44
2023-03-11T07:22:14.710Z,100991.19
2023-03-11T07:24:36.337Z,100994.44
2023-03-11T07:26:57.931Z,100996.13
2023-03-11T07:29:20.324Z,101005.88
2023-03-11T07:31:42.058Z,101008.59
2023-03-11T07:34:11.351Z,101010.78
2023-03-11T07:36:33.114Z,101015.16
2023-03-11T07:39:04.379Z,101013.50
2023-03-11T07:41:27.112Z,101014.84
2023-03-11T07:43:48.752Z,101017.84
2023-03-11T07:46:18.460Z,101022.44
2023-03-11T07:48:40.847Z,101017.78
2023-03-11T07:51:11.220Z,101016.69
2023-03-11T07:53:34.085Z,101016.94
2023-03-11T07:55:58.166Z,101019.34
2023-03-11T07:58:19.779Z,101020.72
2023-03-11T08:00:41.365Z,101031.88
2023-03-11T08:03:02.985Z,101028.31
2023-03-11T08:05:24.678Z,101038.66
2023-03-11T08:07:47.025Z,101043.00
2023-03-11T08:10:09.965Z,101046.75
2023-03-11T08:12:31.552Z,101045.38
2023-03-11T08:14:53.224Z,101039.41
2023-03-11T08:17:14.775Z,101044.53
2023-03-11T08:19:36.620Z,101043.66
2023-03-11T08:22:00.874Z,101041.41
2023-03-11T08:24:22.775Z,101056.91
2023-03-11T08:26:44.403Z,101055.78
2023-03-11T08:29:06.841Z,101050.81
2023-03-11T08:31:33.180Z,101055.09
2023-03-11T08:34:00.864Z,101055.25
2023-03-11T08:36:22.712Z,101049.19
2023-03-11T08:38:45.225Z,101045.78
2023-03-11T08:41:06.970Z,101047.09
2023-03-11T08:43:29.100Z,101046.81
2023-03-11T08:45:50.679Z,101046.53
2023-03-11T08:48:13.113Z,101054.91
2023-03-11T08:50:44.134Z,101052.38
2023-03-11T08:53:09.525Z,101059.94
2023-03-11T08:55:31.205Z,101056.28
2023-03-11T08:57:52.868Z,101062.16
2023-03-11T09:00:15.225Z,101067.56
2023-03-11T09:02:36.813Z,101075.75
2023-03-11T09:04:58.510Z,101081.00
2023-03-11T09:07:20.156Z,101079.81
2023-03-11T09:09:41.754Z,101087.69
2023-03-11T09:12:03.613Z,101082.69
2023-03-11T09:14:25.289Z,101085.22
2023-03-11T09:16:46.925Z,101085.88
2023-03-11T09:19:08.951Z,101082.13
2023-03-11T09:21:30.656Z,101081.19
2023-03-11T09:23:52.404Z,101080.25
2023-03-11T09:26:14.864Z,101083.63
2023-03-11T09:28:36.475Z,101095.81
2023-03-11T09:30:58.211Z,101089.19
2023-03-11T09:33:19.883Z,101088.38
2023-03-11T09:35:41.580Z,101100.19
2023-03-11T09:38:03.270Z,101094.13
2023-03-11T09:40:28.153Z,101097.66
2023-03-11T09:42:59.329Z,101087.94
2023-03-11T09:45:38.421Z,101092.56
2023-03-11T09:48:28.353Z,101107.53
2023-03-11T09:50:53.707Z,101101.19
2023-03-11T09:53:43.825Z,101102.72
2023-03-11T09:56:11.384Z,101109.78
2023-03-11T09:58:44.564Z,101110.34
2023-03-11T10:01:16.946Z,101112.09
2023-03-11T10:03:40.387Z,101106.00
2023-03-11T10:06:21.279Z,101112.69
2023-03-11T10:09:12.179Z,101108.47
2023-03-11T10:11:54.497Z,101105.91
2023-03-11T10:15:01.346Z,101101.56
2023-03-11T10:17:25.964Z,101101.56
2023-03-11T10:20:12.970Z,101098.75
2023-03-11T10:23:07.884Z,101103.63
2023-03-11T10:26:37.076Z,101108.63
2023-03-11T10:29:14.576Z,101111.41
2023-03-11T10:31:54.439Z,101110.13
2023-03-11T10:34:38.260Z,101107.97
2023-03-11T10:37:17.058Z,101109.09
2023-03-11T10:39:40.732Z,101119.97
2023-03-11T10:42:06.095Z,101126.03
2023-03-11T10:44:35.193Z,101116.50
2023-03-11T10:46:56.791Z,101126.19
2023-03-11T10:49:18.877Z,101127.25
2023-03-11T10:51:44.950Z,101117.50
2023-03-11T10:54:06.749Z,101126.06
2023-03-11T10:56:34.479Z,101125.66
2023-03-11T10:58:57.515Z,101123.81
2023-03-11T11:01:21.622Z,101116.94
2023-03-11T11:03:49.154Z,101125.22
2023-03-11T11:06:37.420Z,101123.50
2023-03-11T11:09:21.005Z,101113.50
2023-03-11T11:12:01.267Z,101110.56
2023-03-11T11:14:22.991Z,101114.09
2023-03-11T11:16:52.446Z,101107.69
2023-03-11T11:19:15.303Z,101112.38
2023-03-11T11:21:45.435Z,101111.25
2023-03-11T11:24:26.025Z,101125.88
2023-03-11T11:27:16.755Z,101112.19
2023-03-11T11:29:38.782Z,101115.31
2023-03-11T11:32:18.890Z,101114.50
2023-03-11T11:34:41.563Z,101122.81
2023-03-11T11:37:06.769Z,101119.19
2023-03-11T11:39:40.236Z,101117.13
2023-03-11T11:42:03.082Z,101114.81
2023-03-11T11:44:34.066Z,101111.97
2023-03-11T11:47:07.245Z,101114.81
2023-03-11T11:49:34.608Z,101123.75
2023-03-11T11:52:14.475Z,101114.81
2023-03-11T11:54:49.370Z,101113.00
2023-03-11T11:57:14.076Z,101113.56
2023-03-11T11:59:35.805Z,101119.00
2023-03-11T12:02:33.570Z,101115.84
2023-03-11T12:05:25.906Z,101121.00
2023-03-11T12:08:18.960Z,101116.94
2023-03-11T12:11:01.312Z,101126.06
2023-03-11T12:13:49.376Z,101117.41
2023-03-11T12:16:57.391Z,101119.72
2023-03-11T12:19:43.298Z,101110.91
2023-03-11T12:22:18.293Z,101115.28
2023-03-11T12:24:57.326Z,101113.34
2023-03-11T12:27:27.776Z,101111.81
2023-03-11T12:29:57.988Z,101106.53
2023-03-11T12:32:38.312Z,101113.72
2023-03-11T12:35:21.320Z,101114.28
2023-03-11T12:37:43.216Z,101115.06
2023-03-11T12:40:42.384Z,101105.34
2023-03-11T12:43:04.041Z,101106.56
2023-03-11T12:45:50.595Z,101099.19
2023-03-11T12:48:27.623Z,101105.47
2023-03-11T12:50:49.372Z,101103.38
2023-03-11T12:53:17.902Z,101099.78
2023-03-11T12:55:40.171Z,101097.03
2023-03-11T12:58:30.372Z,101102.88
2023-03-11T13:01:15.033Z,101097.50
2023-03-11T13:04:25.483Z,101087.81
2023-03-11T13:07:30.049Z,101085.63
2023-03-11T13:10:17.941Z,101087.41
2023-03-11T13:12:47.438Z,101077.78
2023-03-11T13:15:20.971Z,101084.94
2023-03-11T13:17:42.714Z,101077.16
2023-03-11T13:20:41.406Z,101082.66
2023-03-11T13:23:03.012Z,101082.53
2023-03-11T13:25:38.033Z,101077.25
2023-03-11T13:29:09.640Z,101079.91
2023-03-11T13:32:13.673Z,101093.13
2023-03-11T13:35:10.641Z,101085.63
2023-03-11T13:37:51.577Z,101075.06
2023-03-11T13:40:39.978Z,101085.59
2023-03-11T13:43:08.550Z,101084.69
2023-03-11T13:45:35.657Z,101084.19
2023-03-11T13:48:16.548Z,101087.28
2023-03-11T13:50:53.528Z,101093.03
2023-03-11T13:53:25.769Z,101091.28
2023-03-11T13:55:48.479Z,101096.63
2023-03-11T13:58:36.348Z,101094.13
2023-03-11T14:01:01.478Z,101094.47
2023-03-11T14:03:27.978Z,101089.00
2023-03-11T14:06:03.732Z,101088.69
2023-03-11T14:08:31.804Z,101102.47
2023-03-11T14:11:03.296Z,101087.97
2023-03-11T14:13:33.824Z,101098.31
2023-03-11T14:16:13.745Z,101095.94
2023-03-11T14:18:42.415Z,101095.78
2023-03-11T14:21:12.686Z,101093.22
2023-03-11T14:23:41.754Z,101102.22
2023-03-11T14:26:13.506Z,101111.06
2023-03-11T14:28:42.911Z,101105.22
2023-03-11T14:31:06.180Z,101106.97
2023-03-11T14:33:28.256Z,101114.56
2023-03-11T14:35:59.946Z,101111.81
2023-03-11T14:38:31.171Z,101114.56
2023-03-11T14:40:58.045Z,101112.97
2023-03-11T14:43:21.780Z,101116.09
2023-03-11T14:45:44.348Z,101109.75
2023-03-11T14:48:41.733Z,101116.44
2023-03-11T14:51:10.707Z,101118.22
2023-03-11T14:53:53.154Z,101114.53
2023-03-11T14:56:26.674Z,101113.09
2023-03-11T14:59:07.420Z,101113.91
2023-03-11T15:01:36.127Z,101109.53
2023-03-11T15:04:32.614Z,101107.13
2023-03-11T15:06:55.866Z,101106.78
2023-03-11T15:09:23.779Z,101115.66
2023-03-11T15:11:55.059Z,101115.66
2023-03-11T15:14:24.606Z,101115.03
2023-03-11T15:16:47.358Z,101117.97
2023-03-11T15:19:44.704Z,101117.03
2023-03-11T15:22:25.632Z,101107.91
2023-03-11T15:24:57.842Z,101108.22
2023-03-11T15:27:32.252Z,101107.88
2023-03-11T15:29:54.181Z,101113.63
2023-03-11T15:32:31.417Z,101110.72
2023-03-11T15:35:10.650Z,101103.09
2023-03-11T15:37:32.547Z,101105.16
2023-03-11T15:40:09.718Z,101101.63
2023-03-11T15:42:31.398Z,101109.22
2023-03-11T15:45:09.448Z,101110.84
2023-03-11T15:47:31.602Z,101108.22
2023-03-11T15:49:53.459Z,101106.78
2023-03-11T15:52:16.693Z,101105.97
2023-03-11T15:54:39.241Z,101109.84
2023-03-11T15:57:04.786Z,101112.28
2023-03-11T15:59:28.392Z,101107.28
2023-03-11T16:01:50.350Z,101098.41
2023-03-11T16:04:15.450Z,101106.66
2023-03-11T16:06:37.074Z,101105.03
2023-03-11T16:08:58.694Z,101108.59
2023-03-11T16:11:20.299Z,101106.63
2023-03-11T16:13:42.247Z,101106.75
2023-03-11T16:16:04.921Z,101107.47
2023-03-11T16:18:26.664Z,101105.00
2023-03-11T16:20:53.007Z,101108.38
2023-03-11T16:23:25.653Z,101112.88
2023-03-11T16:25:48.691Z,101112.06
2023-03-11T16:28:14.985Z,101112.06
2023-03-11T16:30:36.629Z,101106.38
2023-03-11T16:32:58.391Z,101104.72
2023-03-11T16:35:20.910Z,101106.97
2023-03-11T16:37:43.432Z,101108.22
2023-03-11T16:40:07.220Z,101109.66
2023-03-11T16:42:28.814Z,101109.44
2023-03-11T16:44:50.507Z,101108.59
2023-03-11T16:47:12.158Z,101104.63
2023-03-11T16:49:33.843Z,101107.72
2023-03-11T16:51:55.649Z,101112.47
2023-03-11T16:54:17.400Z,101113.72
2023-03-11T16:56:41.710Z,101113.34
2023-03-11T16:59:04.313Z,101116.31
2023-03-11T17:01:26.133Z,101115.22
2023-03-11T17:03:50.848Z,101110.16
2023-03-11T17:06:12.546Z,101110.03
2023-03-11T17:08:34.253Z,101110.16
2023-03-11T17:10:55.895Z,101105.91
2023-03-11T17:13:19.142Z,101111.47
2023-03-11T17:15:44.353Z,101115.72
2023-03-11T17:18:06.133Z,101123.84
2023-03-11T17:20:28.044Z,101120.41
2023-03-11T17:22:49.842Z,101126.28
2023-03-11T17:25:11.492Z,101122.50
2023-03-11T17:27:33.876Z,101129.22
2023-03-11T17:29:55.632Z,101132.00
2023-03-11T17:32:17.836Z,101126.63
2023-03-11T17:34:39.876Z,101123.16
2023-03-11T17:37:01.689Z,101123.56
2023-03-11T17:39:23.861Z,101129.72
2023-03-11T17:41:46.633Z,101127.38
2023-03-11T17:44:09.864Z,101118.53
2023-03-11T17:46:31.648Z,101121.63
2023-03-11T17:48:53.511Z,101121.50
2023-03-11T17:51:19.815Z,101122.16
2023-03-11T17:53:45.982Z,101129.13
2023-03-11T17:56:08.863Z,101130.59
2023-03-11T17:58:30.623Z,101132.91
2023-03-11T18:00:52.268Z,101134.88
2023-03-11T18:03:13.935Z,101140.69
2023-03-11T18:05:37.658Z,101142.97
2023-03-11T18:07:59.366Z,101136.53
2023-03-11T18:10:21.654Z,101140.44
2023-03-11T18:12:45.846Z,101138.88
2023-03-11T18:15:14.299Z,101141.94
2023-03-11T18:17:36.231Z,101143.66
2023-03-11T18:20:00.467Z,101149.47
2023-03-11T18:22:22.118Z,101140.00
2023-03-11T18:24:43.809Z,101149.06
2023-03-11T18:27:05.628Z,101140.97
2023-03-11T18:29:27.419Z,101139.44
2023-03-11T18:31:49.216Z,101143.41
2023-03-11T18:34:13.614Z,101150.84
2023-03-11T18:36:37.623Z,101157.53
2023-03-11T18:39:01.501Z,101159.50
2023-03-11T18:41:25.150Z,101161.22
2023-03-11T18:43:47.060Z,101162.94
2023-03-11T18:46:11.504Z,101160.78
2023-03-11T18:48:33.201Z,101154.84
2023-03-11T18:50:55.665Z,101170.44
2023-03-11T18:53:17.363Z,101164.72
2023-03-11T18:55:39.030Z,101178.09
2023-03-11T18:58:00.762Z,101175.16
2023-03-11T19:00:23.656Z,101168.84
2023-03-11T19:02:45.365Z,101162.88
2023-03-11T19:05:07.662Z,101169.69
2023-03-11T19:07:29.762Z,101163.19
2023-03-11T19:09:51.382Z,101172.22
2023-03-11T19:12:13.003Z,101173.59
2023-03-11T19:14:35.389Z,101171.44
2023-03-11T19:16:57.088Z,101175.81
2023-03-11T19:19:18.948Z,101175.84
2023-03-11T19:21:40.717Z,101173.13
2023-03-11T19:24:02.493Z,101172.06
2023-03-11T19:26:41.411Z,101175.34
2023-03-11T19:29:05.264Z,101174.81
2023-03-11T19:31:26.905Z,101179.44
2023-03-11T19:33:50.827Z,101176.97
2023-03-11T19:36:13.493Z,101174.25
2023-03-11T19:38:35.867Z,101176.19
2023-03-11T19:41:05.286Z,101179.22
2023-03-11T19:43:27.553Z,101178.13
2023-03-11T19:45:50.583Z,101176.22
2023-03-11T19:48:13.337Z,101181.44
2023-03-11T19:50:35.123Z,101185.25
2023-03-11T19:52:56.836Z,101178.44
2023-03-11T19:55:18.599Z,101178.72
2023-03-11T19:57:40.401Z,101176.78
2023-03-11T20:00:02.356Z,101175.41
2023-03-11T20:02:26.575Z,101176.53
2023-03-11T20:04:48.384Z,101177.88
2023-03-11T20:07:11.751Z,101174.06
2023-03-11T20:09:35.080Z,101173.50
2023-03-11T20:11:56.800Z,101172.16
2023-03-11T20:14:18.472Z,101173.00
2023-03-11T20:16:40.318Z,101178.97
2023-03-11T20:19:02.782Z,101175.44
2023-03-11T20:21:24.483Z,101177.63
2023-03-11T20:23:46.125Z,101176.03
2023-03-11T20:26:12.978Z,101177.09
2023-03-11T20:28:34.876Z,101180.38
2023-03-11T20:30:56.690Z,101184.22
2023-03-11T20:33:18.374Z,101173.03
2023-03-11T20:35:41.727Z,101177.13
2023-03-11T20:38:03.493Z,101180.13
2023-03-11T20:40:25.209Z,101170.06
2023-03-11T20:42:47.288Z,101173.88
2023-03-11T20:45:10.646Z,101165.44
2023-03-11T20:47:33.193Z,101169.81
2023-03-11T20:49:56.873Z,101161.38
2023-03-11T20:52:19.601Z,101179.88
2023-03-11T20:54:41.672Z,101170.38
2023-03-11T20:57:04.012Z,101171.44
2023-03-11T20:59:25.805Z,101169.28
2023-03-11T21:01:49.153Z,101173.91
2023-03-11T21:04:11.218Z,101175.53
2023-03-11T21:06:40.769Z,101167.09
2023-03-11T21:09:07.430Z,101174.47
2023-03-11T21:11:29.245Z,101166.28
2023-03-11T21:13:51.868Z,101170.91
2023-03-11T21:16:13.729Z,101171.75
2023-03-11T21:18:35.540Z,101176.06
2023-03-11T21:20:57.755Z,101167.34
2023-03-11T21:23:19.442Z,101160.28
2023-03-11T21:25:42.706Z,101160.03
2023-03-11T21:28:04.740Z,101169.81
2023-03-11T21:30:26.397Z,101161.63
2023-03-11T21:32:48.236Z,101165.44
2023-03-11T21:35:09.998Z,101167.34
2023-03-11T21:37:31.712Z,101166.53
2023-03-11T21:39:54.281Z,101164.31
2023-03-11T21:42:16.596Z,101155.88
2023-03-11T21:44:38.669Z,101160.22
2023-03-11T21:47:00.388Z,101155.31
2023-03-11T21:49:23.052Z,101159.41
2023-03-11T21:51:44.855Z,101155.59
2023-03-11T21:54:06.490Z,101153.69
2023-03-11T21:56:28.740Z,101149.06
2023-03-11T21:58:50.573Z,101149.88
2023-03-11T22:01:12.853Z,101155.84
2023-03-11T22:03:36.064Z,101150.41
2023-03-11T22:05:59.595Z,101157.50
2023-03-11T22:08:21.615Z,101155.03
2023-03-11T22:10:43.454Z,101149.59
2023-03-11T22:13:05.407Z,101153.44
2023-03-11T22:15:27.588Z,101146.06
2023-03-11T22:17:49.473Z,101160.22
2023-03-11T22:20:12.297Z,101151.22
2023-03-11T22:22:34.372Z,101157.50
2023-03-11T22:24:56.065Z,101148.50
2023-03-11T22:27:17.685Z,101145.75
2023-03-11T22:29:39.682Z,101150.41
2023-03-11T22:32:01.340Z,101146.06
2023-03-11T22:34:22.968Z,101140.06
2023-03-11T22:36:44.558Z,101150.16
2023-03-11T22:39:06.319Z,101143.91
2023-03-11T22:41:28.016Z,101143.06
2023-03-11T22:43:49.698Z,101148.25
2023-03-11T22:46:11.442Z,101144.72
2023-03-11T22:48:34.450Z,101143.06
2023-03-11T22:50:56.976Z,101140.34
2023-03-11T22:53:21.441Z,101142.00
2023-03-11T22:55:44.721Z,101136.81
2023-03-11T22:58:06.326Z,101137.91
2023-03-11T23:00:27.977Z,101140.34
2023-03-11T23:02:55.080Z,101142.00
2023-03-11T23:05:16.783Z,101136.25
2023-03-11T23:07:39.127Z,101135.16
2023-03-11T23:10:00.895Z,101133.25
2023-03-11T23:12:22.545Z,101131.06
2023-03-11T23:14:46.183Z,101132.69
2023-03-11T23:17:07.863Z,101138.69
2023-03-11T23:19:29.571Z,101127.22
2023-03-11T23:21:51.214Z,101126.16
2023-03-11T23:24:12.850Z,101134.03
2023-03-11T23:26:35.358Z,101122.06
2023-03-11T23:28:58.341Z,101127.19
2023-03-11T23:31:23.301Z,101125.81
2023-03-11T23:33:45.968Z,101128.28
2023-03-11T23:36:12.708Z,101125.56
2023-03-11T23:38:36.175Z,101128.03
2023-03-11T23:40:58.385Z,101120.66
2023-03-11T23:43:20.175Z,101124.19
2023-03-11T23:45:41.801Z,101123.13
2023-03-11T23:48:03.482Z,101117.66
2023-03-11T23:50:25.180Z,101123.13
2023-03-11T23:52:46.851Z,101119.84
2023-03-11T23:55:09.793Z,101118.75
2023-03-11T23:57:31.445Z,101116.00
2023-03-11T23:59:53.033Z,101117.66
